Accueil
METAR-TAF:

METAR-TAF

Aéroports :

Curtis L. Brown Jr. Field

Elizabethtown, Caroline du Nord, États-Unis

latitude: 34-36N, longitude: 078-35W, altitude: 40 m

Observation

Le bulletin a été fait il y a 32 minutes, à 16:15 UTC
Vent 7 kt de nord/nord-est
Température 7°C
Humidité 66%
Pression 1028 hPa
Visibilité: 16.1 km
Ciel clair

METAR: KEYF 141615Z AUTO 03007KT 10SM CLR 07/01 A3036 RMK AO2 T00740005

Heure: 11:47 (16:47 UTC)


TAF: absent

Observations et prévisions météorologiques de plus de 4000 aéroports (messages METAR et TAF).

Les stations disponibles sont représentées par des disques jaunes et rouges sur la carte.

Passer la souris dessus pour voir le nom de la station.

Cliquer dessus pour voir les observations et prévisions météorologiques.

Pour changer de carte: cliquez sur les boutons verts avec une croix noire pour zoomer, sur le bouton vert avec un tiret pour effectuer un zoom arrière, ou sur les flèches vertes pour les cartes adjacentes.


METAR-TAF: